Ardmore, North Carolina
Current Conditions -  °F | °C
As of 6:54 AM on Saturday 20 Dec 2014 (Local Time) from KINT Reporting Station
Overcast Overcast  
Wind Chill: 27°   Ceiling: 4000
Heat Index: 34°   Visibility: 10mi
Dew Point: 25°   Wind: 8mph
Humidity: 70%   Direction: 10°N
Pressure: 30.27"   Gusts: NA
Location:  36.0595°N, 80.3192°W
Report Text: KINT 201154Z 01007KT 10SM OVC040 01/M04 A3027 RMK AO2 SLP254 T00111039 10044 20011 53021
Loading
Personal Weather Stations






























Interactive Weather Map New forecast layout! Learn more

10-Day Weather Forecast

Advertisements
Track Severe Weather on mobile